createdAt,value
2022-09-14T00:03:11.986Z,16.32
2022-09-14T00:08:52.716Z,16.31
2022-09-14T00:14:20.572Z,16.29
2022-09-14T00:19:37.335Z,16.27
2022-09-14T00:25:04.808Z,16.24
2022-09-14T00:30:45.075Z,16.23
2022-09-14T00:36:35.339Z,16.22
2022-09-14T00:42:10.189Z,16.21
2022-09-14T00:47:24.163Z,16.19
2022-09-14T00:53:23.496Z,16.17
2022-09-14T00:59:45.543Z,16.14
2022-09-14T01:05:57.475Z,16.07
2022-09-14T01:11:58.235Z,15.98
2022-09-14T01:18:31.070Z,15.88
2022-09-14T01:25:04.453Z,15.77
2022-09-14T01:30:32.720Z,15.68
2022-09-14T01:36:35.087Z,15.62
2022-09-14T01:42:12.742Z,15.54
2022-09-14T01:48:06.692Z,15.46
2022-09-14T01:54:17.936Z,15.35
2022-09-14T01:59:43.352Z,15.26
2022-09-14T02:06:02.152Z,15.18
2022-09-14T02:11:31.723Z,15.09
2022-09-14T02:17:18.592Z,15.00
2022-09-14T02:22:46.512Z,14.92
2022-09-14T02:29:25.772Z,14.85
2022-09-14T02:36:02.352Z,14.78
2022-09-14T02:43:06.401Z,14.65
2022-09-14T02:49:37.060Z,14.51
2022-09-14T02:55:50.845Z,14.39
2022-09-14T03:01:55.900Z,14.31
2022-09-14T03:07:56.893Z,14.28
2022-09-14T03:13:51.936Z,14.22
2022-09-14T03:20:15.477Z,14.16
2022-09-14T03:26:53.111Z,14.09
2022-09-14T03:33:15.434Z,14.02
2022-09-14T03:39:23.549Z,13.95
2022-09-14T03:46:05.951Z,13.93
2022-09-14T03:52:04.660Z,13.91
2022-09-14T03:58:46.536Z,13.90
2022-09-14T04:04:55.359Z,13.91
2022-09-14T04:10:32.602Z,13.89
2022-09-14T04:16:13.932Z,13.86
2022-09-14T04:22:38.050Z,13.82
2022-09-14T04:28:56.923Z,13.78
2022-09-14T04:35:20.992Z,13.75
2022-09-14T04:40:31.888Z,13.74
2022-09-14T04:46:05.348Z,13.77
2022-09-14T04:51:26.270Z,13.87
2022-09-14T04:56:55.202Z,13.95
2022-09-14T05:02:27.545Z,14.02
2022-09-14T05:08:14.232Z,14.08
2022-09-14T05:13:51.689Z,14.12
2022-09-14T05:19:43.556Z,14.21
2022-09-14T05:24:45.751Z,14.36
2022-09-14T05:29:59.206Z,14.56
2022-09-14T05:35:17.175Z,14.77
2022-09-14T05:40:54.121Z,14.97
2022-09-14T05:46:36.207Z,15.15
2022-09-14T05:52:32.194Z,15.32
2022-09-14T05:58:06.023Z,15.50
2022-09-14T06:03:33.746Z,15.75
2022-09-14T06:09:16.688Z,16.00
2022-09-14T06:14:21.311Z,16.24
2022-09-14T06:19:46.539Z,16.42
2022-09-14T06:24:52.232Z,16.60
2022-09-14T06:30:05.695Z,16.82
2022-09-14T06:36:14.399Z,17.09
2022-09-14T06:41:57.030Z,17.28
2022-09-14T06:47:10.669Z,17.44
2022-09-14T06:52:57.336Z,17.63
2022-09-14T06:58:56.038Z,17.87
2022-09-14T07:04:27.407Z,18.05
2022-09-14T07:09:32.228Z,18.15
2022-09-14T07:14:47.872Z,18.20
2022-09-14T07:20:25.614Z,18.30
2022-09-14T07:26:25.048Z,18.44
2022-09-14T07:32:31.217Z,18.47
2022-09-14T07:37:57.507Z,18.49
2022-09-14T07:43:24.459Z,18.55
2022-09-14T07:49:33.851Z,18.67
2022-09-14T07:55:19.990Z,18.89
2022-09-14T08:01:16.933Z,19.12
2022-09-14T08:07:22.018Z,19.27
2022-09-14T08:12:41.411Z,19.48
2022-09-14T08:18:01.110Z,19.68
2022-09-14T08:23:36.255Z,19.82
2022-09-14T08:28:52.760Z,19.93
2022-09-14T08:34:05.440Z,20.14
2022-09-14T08:39:57.307Z,20.39
2022-09-14T08:45:24.238Z,20.59
2022-09-14T08:50:43.201Z,20.68
2022-09-14T08:56:18.640Z,20.78
2022-09-14T09:01:45.391Z,20.82
2022-09-14T09:07:39.003Z,20.79
2022-09-14T09:13:09.292Z,20.73
2022-09-14T09:19:00.677Z,20.58
2022-09-14T09:24:31.076Z,20.45
2022-09-14T09:29:42.372Z,20.48
2022-09-14T09:34:55.163Z,20.60
2022-09-14T09:40:50.287Z,20.66
2022-09-14T09:46:05.732Z,20.75
2022-09-14T09:51:23.827Z,20.78
2022-09-14T09:56:37.673Z,20.74
2022-09-14T10:01:42.639Z,20.67
2022-09-14T10:06:54.378Z,20.53
2022-09-14T10:12:41.808Z,20.34
2022-09-14T10:18:48.235Z,20.21
2022-09-14T10:24:21.256Z,20.03
2022-09-14T10:30:18.930Z,19.81
2022-09-14T10:36:58.151Z,19.62
2022-09-14T10:42:51.514Z,19.38
2022-09-14T10:49:04.498Z,19.18
2022-09-14T10:55:11.530Z,19.03
2022-09-14T11:01:06.648Z,18.85
2022-09-14T11:07:04.529Z,18.73
2022-09-14T11:13:54.540Z,18.58
2022-09-14T11:19:35.221Z,18.46
2022-09-14T11:25:20.538Z,18.38
2022-09-14T11:30:37.525Z,18.33
2022-09-14T11:35:55.264Z,18.22
2022-09-14T11:41:29.908Z,18.08
2022-09-14T11:47:05.540Z,17.91
2022-09-14T11:52:29.571Z,17.87
2022-09-14T11:57:46.180Z,17.85
2022-09-14T12:03:19.228Z,17.78
2022-09-14T12:08:48.828Z,17.69
2022-09-14T12:15:14.057Z,17.61
2022-09-14T12:21:30.845Z,17.49
2022-09-14T12:27:48.515Z,17.41
2022-09-14T12:33:33.912Z,17.44
2022-09-14T12:39:34.727Z,17.56
2022-09-14T12:44:47.445Z,17.66
2022-09-14T12:50:33.188Z,17.67
2022-09-14T12:55:59.803Z,17.60
2022-09-14T13:01:49.511Z,17.58
2022-09-14T13:07:07.120Z,17.58
2022-09-14T13:12:43.167Z,17.59
2022-09-14T13:18:16.785Z,17.65
2022-09-14T13:24:08.409Z,17.67
2022-09-14T13:29:29.802Z,17.73
2022-09-14T13:34:40.938Z,17.82
2022-09-14T13:39:54.814Z,17.96
2022-09-14T13:44:57.371Z,18.16
2022-09-14T13:50:03.225Z,18.26
2022-09-14T13:55:48.806Z,18.30
2022-09-14T14:00:58.227Z,18.29
2022-09-14T14:06:51.203Z,18.25
2022-09-14T14:12:17.375Z,18.15
2022-09-14T14:17:57.142Z,18.08
2022-09-14T14:24:11.768Z,18.01
2022-09-14T14:29:44.104Z,17.99
2022-09-14T14:35:48.705Z,17.90
2022-09-14T14:41:23.977Z,17.82
2022-09-14T14:47:02.151Z,17.77
2022-09-14T14:52:12.785Z,17.75
2022-09-14T14:58:41.876Z,17.77
2022-09-14T15:04:07.207Z,17.71
2022-09-14T15:10:37.698Z,17.61
2022-09-14T15:16:42.561Z,17.54
2022-09-14T15:22:21.689Z,17.47
2022-09-14T15:28:11.307Z,17.43
2022-09-14T15:33:58.877Z,17.39
2022-09-14T15:39:25.948Z,17.40
2022-09-14T15:44:37.079Z,17.43
2022-09-14T15:49:43.702Z,17.37
2022-09-14T15:56:25.883Z,17.35
2022-09-14T16:02:28.567Z,17.31
2022-09-14T16:08:13.365Z,17.30
2022-09-14T16:14:15.789Z,17.22
2022-09-14T16:19:40.734Z,17.12
2022-09-14T16:25:06.055Z,17.00
2022-09-14T16:31:14.151Z,16.94
2022-09-14T16:36:27.026Z,16.87
2022-09-14T16:41:58.569Z,16.77
2022-09-14T16:47:18.050Z,16.66
2022-09-14T16:52:53.319Z,16.54
2022-09-14T16:58:44.924Z,16.42
2022-09-14T17:04:40.073Z,16.29
2022-09-14T17:10:14.431Z,16.17
2022-09-14T17:15:38.178Z,16.05
2022-09-14T17:21:51.688Z,15.95
2022-09-14T17:28:05.113Z,15.88
2022-09-14T17:34:18.908Z,15.83
2022-09-14T17:39:46.927Z,15.79
2022-09-14T17:45:21.729Z,15.77
2022-09-14T17:51:12.779Z,15.76
2022-09-14T17:56:57.464Z,15.74
2022-09-14T18:02:31.065Z,15.73
2022-09-14T18:07:55.607Z,15.74
2022-09-14T18:13:57.290Z,15.74
2022-09-14T18:19:58.587Z,15.72
2022-09-14T18:25:55.500Z,15.72
2022-09-14T18:31:39.377Z,15.71
2022-09-14T18:37:44.326Z,15.70
2022-09-14T18:42:48.137Z,15.70
2022-09-14T18:47:50.221Z,15.70
2022-09-14T18:53:02.718Z,15.71
2022-09-14T18:58:10.300Z,15.72
2022-09-14T19:03:56.194Z,15.72
2022-09-14T19:09:09.440Z,15.73
2022-09-14T19:15:12.787Z,15.72
2022-09-14T19:21:07.442Z,15.70
2022-09-14T19:26:15.046Z,15.69
2022-09-14T19:31:36.652Z,15.69
2022-09-14T19:36:45.305Z,15.68
2022-09-14T19:42:08.055Z,15.64
2022-09-14T19:47:29.605Z,15.59
2022-09-14T19:53:02.572Z,15.56
2022-09-14T19:58:46.860Z,15.55
2022-09-14T20:04:05.083Z,15.55
2022-09-14T20:09:27.923Z,15.55
2022-09-14T20:14:45.003Z,15.55
2022-09-14T20:20:15.415Z,15.56
2022-09-14T20:25:42.041Z,15.56
2022-09-14T20:30:57.757Z,15.56
2022-09-14T20:36:45.178Z,15.55
2022-09-14T20:42:31.098Z,15.55
2022-09-14T20:48:09.092Z,15.55
2022-09-14T20:53:48.166Z,15.55
2022-09-14T20:59:22.846Z,15.56
2022-09-14T21:04:50.469Z,15.54
2022-09-14T21:10:40.173Z,15.54
2022-09-14T21:16:42.484Z,15.54
2022-09-14T21:22:17.187Z,15.55
2022-09-14T21:28:20.862Z,15.56
2022-09-14T21:34:16.028Z,15.54
2022-09-14T21:40:24.162Z,15.55
2022-09-14T21:46:37.706Z,15.56
2022-09-14T21:52:25.996Z,15.59
2022-09-14T21:57:34.200Z,15.61
2022-09-14T22:03:18.146Z,15.61
2022-09-14T22:09:36.734Z,15.61
2022-09-14T22:15:36.790Z,15.63
2022-09-14T22:21:55.012Z,15.64
2022-09-14T22:28:32.539Z,15.65
2022-09-14T22:34:28.411Z,15.65
2022-09-14T22:40:36.367Z,15.65
2022-09-14T22:46:25.587Z,15.64
2022-09-14T22:52:47.919Z,15.63
2022-09-14T22:58:14.692Z,15.65
2022-09-14T23:04:34.644Z,15.66
2022-09-14T23:10:23.844Z,15.69
2022-09-14T23:16:50.691Z,15.73
2022-09-14T23:22:41.036Z,15.74
2022-09-14T23:28:55.991Z,15.73
2022-09-14T23:35:37.021Z,15.72
2022-09-14T23:42:11.663Z,15.72
2022-09-14T23:47:35.613Z,15.74
2022-09-14T23:53:06.799Z,15.75
2022-09-14T23:58:16.069Z,15.72
